sensor_id;sensor_type;location;lat;lon;timestamp;pressure;altitude;pressure_sealevel;temperature;humidity
70730;BME280;58315;53.336;55.932;2023-03-05T00:00:36;98424.28;;;0.76;60.48
70730;BME280;58315;53.336;55.932;2023-03-05T00:03:02;98418.88;;;0.79;60.10
70730;BME280;58315;53.336;55.932;2023-03-05T00:05:28;98425.81;;;0.91;60.19
70730;BME280;58315;53.336;55.932;2023-03-05T00:07:55;98425.53;;;0.83;60.00
70730;BME280;58315;53.336;55.932;2023-03-05T00:10:20;98431.47;;;0.85;60.62
70730;BME280;58315;53.336;55.932;2023-03-05T00:12:47;98429.91;;;0.83;60.53
70730;BME280;58315;53.336;55.932;2023-03-05T00:15:13;98432.16;;;0.87;60.13
70730;BME280;58315;53.336;55.932;2023-03-05T00:17:38;98436.84;;;0.95;60.41
70730;BME280;58315;53.336;55.932;2023-03-05T00:20:05;98439.34;;;0.96;60.41
70730;BME280;58315;53.336;55.932;2023-03-05T00:22:33;98432.66;;;1.05;60.25
70730;BME280;58315;53.336;55.932;2023-03-05T00:24:59;98434.13;;;1.09;59.89
70730;BME280;58315;53.336;55.932;2023-03-05T00:27:25;98444.03;;;1.04;60.37
70730;BME280;58315;53.336;55.932;2023-03-05T00:29:51;98436.97;;;0.93;60.51
70730;BME280;58315;53.336;55.932;2023-03-05T00:32:17;98434.16;;;0.96;60.62
70730;BME280;58315;53.336;55.932;2023-03-05T00:34:43;98439.66;;;1.05;60.42
70730;BME280;58315;53.336;55.932;2023-03-05T00:37:09;98435.19;;;1.07;60.18
70730;BME280;58315;53.336;55.932;2023-03-05T00:39:35;98437.56;;;1.10;60.38
70730;BME280;58315;53.336;55.932;2023-03-05T00:42:03;98429.19;;;1.30;60.11
70730;BME280;58315;53.336;55.932;2023-03-05T00:44:29;98434.19;;;1.33;59.94
70730;BME280;58315;53.336;55.932;2023-03-05T00:46:55;98431.97;;;1.40;59.37
70730;BME280;58315;53.336;55.932;2023-03-05T00:49:21;98435.91;;;1.45;59.78
70730;BME280;58315;53.336;55.932;2023-03-05T00:51:47;98439.72;;;1.53;59.47
70730;BME280;58315;53.336;55.932;2023-03-05T00:54:12;98432.38;;;1.47;59.28
70730;BME280;58315;53.336;55.932;2023-03-05T00:56:38;98428.31;;;1.42;59.22
70730;BME280;58315;53.336;55.932;2023-03-05T00:59:04;98430.69;;;1.45;59.63
70730;BME280;58315;53.336;55.932;2023-03-05T01:01:30;98440.91;;;1.49;59.17
70730;BME280;58315;53.336;55.932;2023-03-05T01:03:56;98442.06;;;1.44;59.45
70730;BME280;58315;53.336;55.932;2023-03-05T01:06:24;98447.06;;;1.48;59.76
70730;BME280;58315;53.336;55.932;2023-03-05T01:08:50;98450.41;;;1.61;59.28
70730;BME280;58315;53.336;55.932;2023-03-05T01:11:16;98451.03;;;1.64;59.29
70730;BME280;58315;53.336;55.932;2023-03-05T01:13:42;98460.31;;;1.68;58.88
70730;BME280;58315;53.336;55.932;2023-03-05T01:16:08;98460.31;;;1.68;59.25
70730;BME280;58315;53.336;55.932;2023-03-05T01:18:34;98450.81;;;1.67;59.31
70730;BME280;58315;53.336;55.932;2023-03-05T01:21:00;98454.94;;;1.59;59.26
70730;BME280;58315;53.336;55.932;2023-03-05T01:23:26;98455.13;;;1.56;59.34
70730;BME280;58315;53.336;55.932;2023-03-05T01:25:56;98455.41;;;1.64;59.68
70730;BME280;58315;53.336;55.932;2023-03-05T01:28:22;98460.31;;;1.68;59.45
70730;BME280;58315;53.336;55.932;2023-03-05T01:30:48;98461.25;;;1.67;59.50
70730;BME280;58315;53.336;55.932;2023-03-05T01:33:14;98452.25;;;1.72;59.65
70730;BME280;58315;53.336;55.932;2023-03-05T01:35:40;98450.88;;;1.79;59.61
70730;BME280;58315;53.336;55.932;2023-03-05T01:38:06;98445.66;;;1.79;59.30
70730;BME280;58315;53.336;55.932;2023-03-05T01:40:32;98444.44;;;1.72;59.59
70730;BME280;58315;53.336;55.932;2023-03-05T01:43:05;98448.19;;;1.80;59.60
70730;BME280;58315;53.336;55.932;2023-03-05T01:45:33;98449.00;;;1.81;59.57
70730;BME280;58315;53.336;55.932;2023-03-05T01:47:59;98455.25;;;1.78;59.88
70730;BME280;58315;53.336;55.932;2023-03-05T01:50:26;98441.31;;;1.79;60.00
70730;BME280;58315;53.336;55.932;2023-03-05T01:52:58;98447.09;;;1.83;60.15
70730;BME280;58315;53.336;55.932;2023-03-05T01:55:27;98440.50;;;1.90;60.10
70730;BME280;58315;53.336;55.932;2023-03-05T01:58:06;98439.72;;;2.01;60.18
70730;BME280;58315;53.336;55.932;2023-03-05T02:00:40;98440.94;;;2.08;59.90
70730;BME280;58315;53.336;55.932;2023-03-05T02:03:09;98438.94;;;2.11;59.85
70730;BME280;58315;53.336;55.932;2023-03-05T02:05:38;98429.59;;;2.09;59.81
70730;BME280;58315;53.336;55.932;2023-03-05T02:08:07;98421.53;;;2.12;60.33
70730;BME280;58315;53.336;55.932;2023-03-05T02:10:35;98428.28;;;2.14;60.29
70730;BME280;58315;53.336;55.932;2023-03-05T02:13:06;98439.09;;;2.21;60.36
70730;BME280;58315;53.336;55.932;2023-03-05T02:15:33;98436.97;;;2.26;59.88
70730;BME280;58315;53.336;55.932;2023-03-05T02:17:59;98436.75;;;2.29;60.25
70730;BME280;58315;53.336;55.932;2023-03-05T02:20:28;98444.50;;;2.42;59.94
70730;BME280;58315;53.336;55.932;2023-03-05T02:22:55;98443.31;;;2.46;59.74
70730;BME280;58315;53.336;55.932;2023-03-05T02:25:26;98455.31;;;2.49;59.78
70730;BME280;58315;53.336;55.932;2023-03-05T02:28:07;98457.91;;;2.49;59.69
70730;BME280;58315;53.336;55.932;2023-03-05T02:30:34;98464.75;;;2.38;59.79
70730;BME280;58315;53.336;55.932;2023-03-05T02:33:02;98458.81;;;2.36;59.95
70730;BME280;58315;53.336;55.932;2023-03-05T02:35:28;98462.16;;;2.38;59.74
70730;BME280;58315;53.336;55.932;2023-03-05T02:37:54;98458.75;;;2.49;59.78
70730;BME280;58315;53.336;55.932;2023-03-05T02:40:20;98462.41;;;2.47;59.81
70730;BME280;58315;53.336;55.932;2023-03-05T02:42:46;98462.66;;;2.55;59.30
70730;BME280;58315;53.336;55.932;2023-03-05T02:45:13;98463.34;;;2.46;59.44
70730;BME280;58315;53.336;55.932;2023-03-05T02:47:40;98469.03;;;2.51;59.71
70730;BME280;58315;53.336;55.932;2023-03-05T02:50:08;98476.03;;;2.50;59.83
70730;BME280;58315;53.336;55.932;2023-03-05T02:52:35;98479.31;;;2.41;59.76
70730;BME280;58315;53.336;55.932;2023-03-05T02:55:07;98488.44;;;2.35;60.38
70730;BME280;58315;53.336;55.932;2023-03-05T02:57:33;98479.38;;;2.17;60.79
70730;BME280;58315;53.336;55.932;2023-03-05T03:00:00;98469.59;;;2.08;60.88
70730;BME280;58315;53.336;55.932;2023-03-05T03:02:26;98469.22;;;2.25;60.99
70730;BME280;58315;53.336;55.932;2023-03-05T03:04:51;98470.38;;;2.21;60.84
70730;BME280;58315;53.336;55.932;2023-03-05T03:07:17;98468.25;;;2.26;61.02
70730;BME280;58315;53.336;55.932;2023-03-05T03:09:43;98468.72;;;2.20;61.10
70730;BME280;58315;53.336;55.932;2023-03-05T03:12:10;98471.78;;;2.14;61.16
70730;BME280;58315;53.336;55.932;2023-03-05T03:14:38;98468.03;;;2.29;61.10
70730;BME280;58315;53.336;55.932;2023-03-05T03:17:16;98458.78;;;2.25;61.27
70730;BME280;58315;53.336;55.932;2023-03-05T03:19:45;98470.19;;;2.35;61.18
70730;BME280;58315;53.336;55.932;2023-03-05T03:22:13;98469.69;;;2.30;60.97
70730;BME280;58315;53.336;55.932;2023-03-05T03:24:42;98475.41;;;2.35;61.07
70730;BME280;58315;53.336;55.932;2023-03-05T03:27:08;98472.53;;;2.27;61.58
70730;BME280;58315;53.336;55.932;2023-03-05T03:29:35;98474.97;;;2.41;61.43
70730;BME280;58315;53.336;55.932;2023-03-05T03:32:01;98465.03;;;2.58;61.04
70730;BME280;58315;53.336;55.932;2023-03-05T03:34:27;98470.25;;;2.58;60.58
70730;BME280;58315;53.336;55.932;2023-03-05T03:36:53;98469.78;;;2.64;60.69
70730;BME280;58315;53.336;55.932;2023-03-05T03:39:19;98476.78;;;2.63;60.20
70730;BME280;58315;53.336;55.932;2023-03-05T03:41:48;98477.84;;;2.61;60.33
70730;BME280;58315;53.336;55.932;2023-03-05T03:44:15;98481.03;;;2.53;60.46
70730;BME280;58315;53.336;55.932;2023-03-05T03:46:43;98472.13;;;2.56;60.61
70730;BME280;58315;53.336;55.932;2023-03-05T03:49:20;98477.66;;;2.75;60.45
70730;BME280;58315;53.336;55.932;2023-03-05T03:51:47;98474.22;;;2.75;59.95
70730;BME280;58315;53.336;55.932;2023-03-05T03:54:15;98472.06;;;2.80;60.05
70730;BME280;58315;53.336;55.932;2023-03-05T03:56:41;98472.19;;;2.78;59.91
70730;BME280;58315;53.336;55.932;2023-03-05T03:59:07;98473.72;;;2.81;59.56
70730;BME280;58315;53.336;55.932;2023-03-05T04:01:34;98477.06;;;2.83;60.13
70730;BME280;58315;53.336;55.932;2023-03-05T04:04:00;98470.06;;;2.83;59.85
70730;BME280;58315;53.336;55.932;2023-03-05T04:06:26;98472.53;;;2.96;59.26
70730;BME280;58315;53.336;55.932;2023-03-05T04:08:52;98479.53;;;2.84;59.16
70730;BME280;58315;53.336;55.932;2023-03-05T04:11:18;98485.72;;;2.95;59.21
70730;BME280;58315;53.336;55.932;2023-03-05T04:13:45;98486.91;;;2.90;59.64
70730;BME280;58315;53.336;55.932;2023-03-05T04:16:13;98485.59;;;2.85;59.33
70730;BME280;58315;53.336;55.932;2023-03-05T04:18:39;98481.69;;;2.79;59.42
70730;BME280;58315;53.336;55.932;2023-03-05T04:21:05;98490.47;;;2.78;59.82
70730;BME280;58315;53.336;55.932;2023-03-05T04:23:31;98483.09;;;2.83;59.66
70730;BME280;58315;53.336;55.932;2023-03-05T04:25:57;98486.53;;;2.84;59.63
70730;BME280;58315;53.336;55.932;2023-03-05T04:28:23;98482.16;;;2.84;59.70
70730;BME280;58315;53.336;55.932;2023-03-05T04:30:49;98489.16;;;2.84;59.88
70730;BME280;58315;53.336;55.932;2023-03-05T04:33:15;98489.38;;;2.92;59.94
70730;BME280;58315;53.336;55.932;2023-03-05T04:35:41;98489.28;;;2.94;59.46
70730;BME280;58315;53.336;55.932;2023-03-05T04:38:07;98481.34;;;2.95;59.30
70730;BME280;58315;53.336;55.932;2023-03-05T04:40:33;98490.72;;;2.98;59.51
70730;BME280;58315;53.336;55.932;2023-03-05T04:42:59;98484.69;;;3.08;59.09
70730;BME280;58315;53.336;55.932;2023-03-05T04:45:25;98490.03;;;3.18;58.95
70730;BME280;58315;53.336;55.932;2023-03-05T04:47:52;98494.75;;;3.13;58.90
70730;BME280;58315;53.336;55.932;2023-03-05T04:50:18;98494.88;;;3.11;58.65
70730;BME280;58315;53.336;55.932;2023-03-05T04:52:44;98508.03;;;2.99;58.64
70730;BME280;58315;53.336;55.932;2023-03-05T04:55:13;98502.94;;;3.08;58.83
70730;BME280;58315;53.336;55.932;2023-03-05T04:57:40;98510.31;;;3.14;58.92
70730;BME280;58315;53.336;55.932;2023-03-05T05:00:09;98508.03;;;2.99;58.76
70730;BME280;58315;53.336;55.932;2023-03-05T05:02:40;98494.97;;;3.10;59.21
70730;BME280;58315;53.336;55.932;2023-03-05T05:05:08;98505.69;;;3.29;58.78
70730;BME280;58315;53.336;55.932;2023-03-05T05:07:34;98505.31;;;3.34;58.33
70730;BME280;58315;53.336;55.932;2023-03-05T05:10:00;98506.72;;;3.49;58.81
70730;BME280;58315;53.336;55.932;2023-03-05T05:12:29;98512.06;;;3.70;58.29
70730;BME280;58315;53.336;55.932;2023-03-05T05:14:56;98508.72;;;3.68;58.23
70730;BME280;58315;53.336;55.932;2023-03-05T05:17:22;98508.75;;;3.57;58.59
70730;BME280;58315;53.336;55.932;2023-03-05T05:19:48;98512.41;;;3.66;58.26
70730;BME280;58315;53.336;55.932;2023-03-05T05:22:14;98508.97;;;3.54;58.45
70730;BME280;58315;53.336;55.932;2023-03-05T05:24:40;98512.09;;;3.59;58.49
70730;BME280;58315;53.336;55.932;2023-03-05T05:27:06;98518.50;;;3.66;58.39
70730;BME280;58315;53.336;55.932;2023-03-05T05:29:33;98517.28;;;3.70;58.08
70730;BME280;58315;53.336;55.932;2023-03-05T05:31:59;98526.66;;;3.61;58.92
70730;BME280;58315;53.336;55.932;2023-03-05T05:34:25;98523.22;;;3.72;58.92
70730;BME280;58315;53.336;55.932;2023-03-05T05:36:51;98525.47;;;3.88;58.50
70730;BME280;58315;53.336;55.932;2023-03-05T05:39:18;98515.69;;;3.90;58.43
70730;BME280;58315;53.336;55.932;2023-03-05T05:41:44;98511.63;;;3.97;58.46
70730;BME280;58315;53.336;55.932;2023-03-05T05:44:10;98510.09;;;3.95;58.35
70730;BME280;58315;53.336;55.932;2023-03-05T05:46:36;98509.50;;;3.91;58.32
70730;BME280;58315;53.336;55.932;2023-03-05T05:49:02;98523.06;;;3.96;58.67
70730;BME280;58315;53.336;55.932;2023-03-05T05:51:28;98515.47;;;3.93;58.51
70730;BME280;58315;53.336;55.932;2023-03-05T05:53:54;98529.94;;;3.97;58.75
70730;BME280;58315;53.336;55.932;2023-03-05T05:56:20;98522.88;;;4.09;58.24
70730;BME280;58315;53.336;55.932;2023-03-05T05:58:47;98516.50;;;4.34;57.79
70730;BME280;58315;53.336;55.932;2023-03-05T06:01:23;98514.84;;;4.65;57.10
70730;BME280;58315;53.336;55.932;2023-03-05T06:03:50;98518.19;;;4.56;56.58
70730;BME280;58315;53.336;55.932;2023-03-05T06:06:19;98519.47;;;4.82;55.78
70730;BME280;58315;53.336;55.932;2023-03-05T06:08:45;98517.50;;;4.96;55.61
70730;BME280;58315;53.336;55.932;2023-03-05T06:11:12;98507.28;;;5.14;55.03
70730;BME280;58315;53.336;55.932;2023-03-05T06:13:38;98512.56;;;5.23;54.93
70730;BME280;58315;53.336;55.932;2023-03-05T06:16:07;98505.19;;;5.38;54.10
70730;BME280;58315;53.336;55.932;2023-03-05T06:18:34;98516.13;;;5.53;54.25
70730;BME280;58315;53.336;55.932;2023-03-05T06:21:08;98499.28;;;5.46;53.91
70730;BME280;58315;53.336;55.932;2023-03-05T06:23:35;98502.88;;;5.54;53.79
70730;BME280;58315;53.336;55.932;2023-03-05T06:26:03;98502.31;;;5.41;53.46
70730;BME280;58315;53.336;55.932;2023-03-05T06:28:30;98503.44;;;5.58;53.37
70730;BME280;58315;53.336;55.932;2023-03-05T06:31:05;98497.41;;;5.67;52.94
70730;BME280;58315;53.336;55.932;2023-03-05T06:33:32;98503.91;;;5.63;52.72
70730;BME280;58315;53.336;55.932;2023-03-05T06:35:58;98505.75;;;5.42;53.23
70730;BME280;58315;53.336;55.932;2023-03-05T06:38:24;98506.25;;;5.36;52.69
70730;BME280;58315;53.336;55.932;2023-03-05T06:40:51;98502.97;;;5.43;52.95
70730;BME280;58315;53.336;55.932;2023-03-05T06:43:17;98496.88;;;5.73;53.04
70730;BME280;58315;53.336;55.932;2023-03-05T06:45:43;98502.06;;;5.94;52.60
70730;BME280;58315;53.336;55.932;2023-03-05T06:48:12;98493.31;;;5.74;52.46
70730;BME280;58315;53.336;55.932;2023-03-05T06:50:40;98504.56;;;5.65;52.85
70730;BME280;58315;53.336;55.932;2023-03-05T06:53:06;98494.47;;;5.51;53.06
70730;BME280;58315;53.336;55.932;2023-03-05T06:55:35;98500.00;;;5.57;52.80
70730;BME280;58315;53.336;55.932;2023-03-05T06:58:05;98495.47;;;5.69;52.82
70730;BME280;58315;53.336;55.932;2023-03-05T07:00:31;98498.66;;;5.63;52.69
70730;BME280;58315;53.336;55.932;2023-03-05T07:02:57;98484.69;;;5.63;52.68
70730;BME280;58315;53.336;55.932;2023-03-05T07:05:23;98496.75;;;5.75;53.04
70730;BME280;58315;53.336;55.932;2023-03-05T07:07:49;98488.06;;;5.74;53.26
70730;BME280;58315;53.336;55.932;2023-03-05T07:10:15;98505.09;;;5.59;53.50
70730;BME280;58315;53.336;55.932;2023-03-05T07:12:44;98490.84;;;5.42;53.23
70730;BME280;58315;53.336;55.932;2023-03-05T07:15:10;98493.69;;;5.29;53.34
70730;BME280;58315;53.336;55.932;2023-03-05T07:17:36;98491.13;;;5.08;54.27
70730;BME280;58315;53.336;55.932;2023-03-05T07:20:05;98487.59;;;5.19;54.04
70730;BME280;58315;53.336;55.932;2023-03-05T07:22:31;98491.16;;;5.18;54.91
70730;BME280;58315;53.336;55.932;2023-03-05T07:24:57;98503.91;;;5.02;54.49
70730;BME280;58315;53.336;55.932;2023-03-05T07:27:22;98478.94;;;4.98;55.07
70730;BME280;58315;53.336;55.932;2023-03-05T07:29:50;98495.88;;;4.94;54.70
70730;BME280;58315;53.336;55.932;2023-03-05T07:32:16;98486.34;;;4.93;55.71
70730;BME280;58315;53.336;55.932;2023-03-05T07:34:42;98473.41;;;5.01;55.83
70730;BME280;58315;53.336;55.932;2023-03-05T07:37:07;98482.84;;;4.82;56.21
70730;BME280;58315;53.336;55.932;2023-03-05T07:39:33;98486.81;;;4.77;55.80
70730;BME280;58315;53.336;55.932;2023-03-05T07:41:59;98473.00;;;4.75;55.92
70730;BME280;58315;53.336;55.932;2023-03-05T07:44:35;98476.09;;;4.59;56.81
70730;BME280;58315;53.336;55.932;2023-03-05T07:47:04;98477.06;;;4.58;56.74
70730;BME280;58315;53.336;55.932;2023-03-05T07:49:30;98477.16;;;4.56;56.49
70730;BME280;58315;53.336;55.932;2023-03-05T07:51:56;98460.06;;;4.31;57.27
70730;BME280;58315;53.336;55.932;2023-03-05T07:54:22;98453.22;;;4.19;57.37
70730;BME280;58315;53.336;55.932;2023-03-05T07:56:47;98456.91;;;4.17;57.62
70730;BME280;58315;53.336;55.932;2023-03-05T07:59:14;98442.66;;;4.21;57.89
70730;BME280;58315;53.336;55.932;2023-03-05T08:01:40;98446.03;;;4.32;57.54
70730;BME280;58315;53.336;55.932;2023-03-05T08:04:06;98445.19;;;4.53;57.00
70730;BME280;58315;53.336;55.932;2023-03-05T08:06:40;98445.19;;;4.53;56.61
70730;BME280;58315;53.336;55.932;2023-03-05T08:09:06;98441.25;;;4.38;57.41
70730;BME280;58315;53.336;55.932;2023-03-05T08:11:32;98427.91;;;4.20;57.79
70730;BME280;58315;53.336;55.932;2023-03-05T08:13:58;98437.72;;;4.27;58.01
70730;BME280;58315;53.336;55.932;2023-03-05T08:16:25;98429.63;;;4.30;57.56
70730;BME280;58315;53.336;55.932;2023-03-05T08:18:56;98428.09;;;4.49;57.63
70730;BME280;58315;53.336;55.932;2023-03-05T08:21:27;98426.94;;;4.42;57.59
70730;BME280;58315;53.336;55.932;2023-03-05T08:23:59;98418.78;;;4.35;57.60
70730;BME280;58315;53.336;55.932;2023-03-05T08:26:27;98412.16;;;4.31;57.69
70730;BME280;58315;53.336;55.932;2023-03-05T08:28:54;98412.16;;;4.31;57.50
70730;BME280;58315;53.336;55.932;2023-03-05T08:31:21;98404.06;;;4.34;57.29
70730;BME280;58315;53.336;55.932;2023-03-05T08:33:49;98410.25;;;4.33;57.66
70730;BME280;58315;53.336;55.932;2023-03-05T08:36:16;98387.69;;;4.32;57.02
70730;BME280;58315;53.336;55.932;2023-03-05T08:38:42;98395.69;;;4.40;57.22
70730;BME280;58315;53.336;55.932;2023-03-05T08:41:10;98392.25;;;4.40;57.01
70730;BME280;58315;53.336;55.932;2023-03-05T08:43:36;98393.00;;;4.51;56.66
70730;BME280;58315;53.336;55.932;2023-03-05T08:46:02;98378.47;;;4.38;56.50
70730;BME280;58315;53.336;55.932;2023-03-05T08:48:29;98396.91;;;4.36;57.18
70730;BME280;58315;53.336;55.932;2023-03-05T08:50:57;98383.94;;;4.34;56.56
70730;BME280;58315;53.336;55.932;2023-03-05T08:53:23;98380.59;;;4.44;56.39
70730;BME280;58315;53.336;55.932;2023-03-05T08:55:56;98389.44;;;4.52;56.41
70730;BME280;58315;53.336;55.932;2023-03-05T08:58:23;98374.13;;;4.48;56.49
70730;BME280;58315;53.336;55.932;2023-03-05T09:00:49;98373.72;;;4.52;56.29
70730;BME280;58315;53.336;55.932;2023-03-05T09:03:16;98363.59;;;4.59;56.17
70730;BME280;58315;53.336;55.932;2023-03-05T09:05:42;98363.41;;;4.51;56.12
70730;BME280;58315;53.336;55.932;2023-03-05T09:08:08;98374.22;;;4.67;56.03
70730;BME280;58315;53.336;55.932;2023-03-05T09:10:34;98355.56;;;4.81;55.55
70730;BME280;58315;53.336;55.932;2023-03-05T09:13:00;98341.78;;;4.79;55.44
70730;BME280;58315;53.336;55.932;2023-03-05T09:15:29;98344.41;;;4.79;55.17
70730;BME280;58315;53.336;55.932;2023-03-05T09:17:58;98344.97;;;4.83;55.00
70730;BME280;58315;53.336;55.932;2023-03-05T09:20:24;98328.59;;;4.91;55.28
70730;BME280;58315;53.336;55.932;2023-03-05T09:22:50;98336.50;;;5.10;54.80
70730;BME280;58315;53.336;55.932;2023-03-05T09:25:16;98335.78;;;5.08;54.71
70730;BME280;58315;53.336;55.932;2023-03-05T09:27:42;98328.41;;;5.32;54.44
70730;BME280;58315;53.336;55.932;2023-03-05T09:30:11;98325.53;;;5.55;53.92
70730;BME280;58315;53.336;55.932;2023-03-05T09:32:37;98317.28;;;5.60;53.15
70730;BME280;58315;53.336;55.932;2023-03-05T09:35:04;98318.78;;;5.52;53.50
70730;BME280;58315;53.336;55.932;2023-03-05T09:37:30;98312.13;;;5.77;53.75
70730;BME280;58315;53.336;55.932;2023-03-05T09:39:57;98316.56;;;6.16;53.11
70730;BME280;58315;53.336;55.932;2023-03-05T09:48:24;98289.88;;;6.67;50.94
70730;BME280;58315;53.336;55.932;2023-03-05T09:50:59;98288.81;;;6.13;52.08
70730;BME280;58315;53.336;55.932;2023-03-05T09:56:04;98275.44;;;5.77;52.39
70730;BME280;58315;53.336;55.932;2023-03-05T09:58:48;98269.94;;;5.61;53.47
70730;BME280;58315;53.336;55.932;2023-03-05T10:01:20;98261.41;;;5.49;53.42
70730;BME280;58315;53.336;55.932;2023-03-05T10:07:16;98251.47;;;5.33;54.14
70730;BME280;58315;53.336;55.932;2023-03-05T10:09:57;98245.16;;;5.46;53.64
70730;BME280;58315;53.336;55.932;2023-03-05T10:12:34;98242.41;;;5.38;53.72
70730;BME280;58315;53.336;55.932;2023-03-05T10:15:12;98226.22;;;5.52;53.46
70730;BME280;58315;53.336;55.932;2023-03-05T10:20:21;98222.16;;;6.06;52.58
70730;BME280;58315;53.336;55.932;2023-03-05T10:23:10;98219.63;;;6.14;51.66
70730;BME280;58315;53.336;55.932;2023-03-05T10:37:27;98203.34;;;5.54;53.15
70730;BME280;58315;53.336;55.932;2023-03-05T10:40:14;98202.53;;;5.53;53.60
70730;BME280;58315;53.336;55.932;2023-03-05T10:45:21;98200.47;;;5.28;53.69
70730;BME280;58315;53.336;55.932;2023-03-05T10:48:20;98199.34;;;5.40;53.72
70730;BME280;58315;53.336;55.932;2023-03-05T10:51:09;98183.09;;;5.37;53.98
70730;BME280;58315;53.336;55.932;2023-03-05T10:53:47;98191.38;;;5.42;53.96
70730;BME280;58315;53.336;55.932;2023-03-05T10:56:20;98190.53;;;5.51;54.09
70730;BME280;58315;53.336;55.932;2023-03-05T10:58:49;98194.13;;;5.40;54.24
70730;BME280;58315;53.336;55.932;2023-03-05T11:01:18;98186.69;;;5.45;53.76
70730;BME280;58315;53.336;55.932;2023-03-05T11:04:01;98194.94;;;5.50;54.15
70730;BME280;58315;53.336;55.932;2023-03-05T11:06:37;98181.28;;;5.47;53.68
70730;BME280;58315;53.336;55.932;2023-03-05T11:09:31;98178.63;;;5.66;53.81
70730;BME280;58315;53.336;55.932;2023-03-05T11:12:10;98184.31;;;5.62;53.66
70730;BME280;58315;53.336;55.932;2023-03-05T11:14:40;98172.22;;;5.31;54.26
70730;BME280;58315;53.336;55.932;2023-03-05T11:17:36;98172.22;;;5.41;54.55
70730;BME280;58315;53.336;55.932;2023-03-05T11:23:10;98175.78;;;5.40;54.26
70730;BME280;58315;53.336;55.932;2023-03-05T11:25:52;98172.88;;;5.33;54.32
70730;BME280;58315;53.336;55.932;2023-03-05T11:28:32;98172.50;;;5.09;54.72
70730;BME280;58315;53.336;55.932;2023-03-05T11:36:32;98178.69;;;5.18;55.33
70730;BME280;58315;53.336;55.932;2023-03-05T11:41:43;98182.16;;;5.08;55.27
70730;BME280;58315;53.336;55.932;2023-03-05T11:50:26;98183.13;;;4.98;56.21
70730;BME280;58315;53.336;55.932;2023-03-05T11:53:12;98183.09;;;4.88;55.53
70730;BME280;58315;53.336;55.932;2023-03-05T12:00:45;98197.69;;;4.81;56.54
70730;BME280;58315;53.336;55.932;2023-03-05T12:03:14;98190.53;;;4.73;56.97
70730;BME280;58315;53.336;55.932;2023-03-05T12:05:48;98180.63;;;4.77;56.82
70730;BME280;58315;53.336;55.932;2023-03-05T12:08:20;98176.34;;;4.76;56.99
70730;BME280;58315;53.336;55.932;2023-03-05T12:10:50;98166.41;;;4.70;57.45
70730;BME280;58315;53.336;55.932;2023-03-05T12:13:36;98154.59;;;4.95;57.10
70730;BME280;58315;53.336;55.932;2023-03-05T12:22:19;98163.84;;;5.08;57.47
70730;BME280;58315;53.336;55.932;2023-03-05T12:24:46;98143.16;;;4.96;57.40
70730;BME280;58315;53.336;55.932;2023-03-05T12:27:14;98133.50;;;4.96;57.27
70730;BME280;58315;53.336;55.932;2023-03-05T12:29:51;98134.75;;;5.02;57.09
70730;BME280;58315;53.336;55.932;2023-03-05T12:35:20;98114.91;;;4.90;57.41
70730;BME280;58315;53.336;55.932;2023-03-05T12:40:30;98096.34;;;4.83;58.07
70730;BME280;58315;53.336;55.932;2023-03-05T12:43:01;98106.25;;;4.70;58.21
70730;BME280;58315;53.336;55.932;2023-03-05T12:45:34;98096.88;;;4.57;58.71
70730;BME280;58315;53.336;55.932;2023-03-05T12:53:11;98106.22;;;4.60;58.95
70730;BME280;58315;53.336;55.932;2023-03-05T12:55:50;98084.88;;;4.45;59.11
70730;BME280;58315;53.336;55.932;2023-03-05T13:04:13;98079.47;;;4.27;60.01
70730;BME280;58315;53.336;55.932;2023-03-05T13:06:41;98061.00;;;4.09;60.12
70730;BME280;58315;53.336;55.932;2023-03-05T13:09:18;98064.19;;;4.13;59.93
70730;BME280;58315;53.336;55.932;2023-03-05T13:11:47;98057.19;;;4.14;60.26
70730;BME280;58315;53.336;55.932;2023-03-05T13:14:36;98061.31;;;4.16;60.02
70730;BME280;58315;53.336;55.932;2023-03-05T13:17:33;98073.13;;;4.10;60.43
70730;BME280;58315;53.336;55.932;2023-03-05T13:23:34;98051.22;;;4.02;60.84
70730;BME280;58315;53.336;55.932;2023-03-05T13:26:11;98054.41;;;3.96;61.10
70730;BME280;58315;53.336;55.932;2023-03-05T13:28:40;98060.16;;;3.90;61.08
70730;BME280;58315;53.336;55.932;2023-03-05T13:31:13;98046.78;;;3.83;60.92
70730;BME280;58315;53.336;55.932;2023-03-05T13:33:56;98064.56;;;3.89;61.48
70730;BME280;58315;53.336;55.932;2023-03-05T13:36:24;98068.81;;;3.80;62.11
70730;BME280;58315;53.336;55.932;2023-03-05T13:38:51;98055.81;;;3.69;62.23
70730;BME280;58315;53.336;55.932;2023-03-05T13:41:21;98058.66;;;3.56;62.25
70730;BME280;58315;53.336;55.932;2023-03-05T13:43:52;98041.09;;;3.68;62.22
70730;BME280;58315;53.336;55.932;2023-03-05T13:46:43;98054.56;;;3.63;61.98
70730;BME280;58315;53.336;55.932;2023-03-05T13:49:25;98054.72;;;3.62;62.21
70730;BME280;58315;53.336;55.932;2023-03-05T13:51:55;98049.19;;;3.55;61.99
70730;BME280;58315;53.336;55.932;2023-03-05T13:54:24;98046.38;;;3.47;62.47
70730;BME280;58315;53.336;55.932;2023-03-05T13:59:18;98032.72;;;3.34;62.66
70730;BME280;58315;53.336;55.932;2023-03-05T14:01:46;98028.75;;;3.39;63.12
70730;BME280;58315;53.336;55.932;2023-03-05T14:12:05;98044.56;;;3.38;62.59
70730;BME280;58315;53.336;55.932;2023-03-05T14:14:36;98048.97;;;3.37;63.21
70730;BME280;58315;53.336;55.932;2023-03-05T14:17:41;98042.69;;;3.50;62.36
70730;BME280;58315;53.336;55.932;2023-03-05T14:20:24;98034.53;;;3.43;63.13
70730;BME280;58315;53.336;55.932;2023-03-05T14:22:59;98035.09;;;3.47;62.88
70730;BME280;58315;53.336;55.932;2023-03-05T14:25:36;98025.47;;;3.37;62.56
70730;BME280;58315;53.336;55.932;2023-03-05T14:30:48;98044.00;;;3.34;63.43
70730;BME280;58315;53.336;55.932;2023-03-05T14:33:21;98045.66;;;3.35;63.36
70730;BME280;58315;53.336;55.932;2023-03-05T14:35:49;98026.06;;;3.20;63.57
70730;BME280;58315;53.336;55.932;2023-03-05T14:38:25;98022.63;;;3.20;64.07
70730;BME280;58315;53.336;55.932;2023-03-05T14:40:52;98037.72;;;3.16;64.52